sensor_id;sensor_type;location;lat;lon;timestamp;P1;durP1;ratioP1;P2;durP2;ratioP2
58496;SDS011;44284;51.310;16.904;2022-12-01T00:00:40;62.00;;;25.70;;
58496;SDS011;44284;51.310;16.904;2022-12-01T00:03:06;59.30;;;23.63;;
58496;SDS011;44284;51.310;16.904;2022-12-01T00:05:33;62.40;;;25.63;;
58496;SDS011;44284;51.310;16.904;2022-12-01T00:07:59;62.05;;;24.17;;
58496;SDS011;44284;51.310;16.904;2022-12-01T00:10:25;55.75;;;26.33;;
58496;SDS011;44284;51.310;16.904;2022-12-01T00:12:52;69.60;;;26.35;;
58496;SDS011;44284;51.310;16.904;2022-12-01T00:15:19;53.47;;;21.98;;
58496;SDS011;44284;51.310;16.904;2022-12-01T00:17:45;55.17;;;22.83;;
58496;SDS011;44284;51.310;16.904;2022-12-01T00:20:12;50.92;;;21.75;;
58496;SDS011;44284;51.310;16.904;2022-12-01T00:22:40;51.65;;;22.05;;
58496;SDS011;44284;51.310;16.904;2022-12-01T00:25:07;51.10;;;20.83;;
58496;SDS011;44284;51.310;16.904;2022-12-01T00:27:33;54.88;;;22.25;;
58496;SDS011;44284;51.310;16.904;2022-12-01T00:29:59;51.13;;;23.55;;
58496;SDS011;44284;51.310;16.904;2022-12-01T00:32:25;54.88;;;22.55;;
58496;SDS011;44284;51.310;16.904;2022-12-01T00:34:51;66.07;;;27.17;;
58496;SDS011;44284;51.310;16.904;2022-12-01T00:37:17;56.08;;;23.02;;
58496;SDS011;44284;51.310;16.904;2022-12-01T00:39:43;53.45;;;23.70;;
58496;SDS011;44284;51.310;16.904;2022-12-01T00:42:09;55.30;;;25.45;;
58496;SDS011;44284;51.310;16.904;2022-12-01T00:44:35;54.15;;;24.15;;
58496;SDS011;44284;51.310;16.904;2022-12-01T00:47:01;57.33;;;24.52;;
58496;SDS011;44284;51.310;16.904;2022-12-01T00:49:27;56.03;;;23.50;;
58496;SDS011;44284;51.310;16.904;2022-12-01T00:51:53;64.47;;;27.17;;
58496;SDS011;44284;51.310;16.904;2022-12-01T00:54:19;66.55;;;26.45;;
58496;SDS011;44284;51.310;16.904;2022-12-01T00:56:45;67.38;;;28.38;;
58496;SDS011;44284;51.310;16.904;2022-12-01T00:59:11;58.95;;;23.77;;
58496;SDS011;44284;51.310;16.904;2022-12-01T01:01:37;54.05;;;22.48;;
58496;SDS011;44284;51.310;16.904;2022-12-01T01:04:05;46.58;;;20.27;;
58496;SDS011;44284;51.310;16.904;2022-12-01T01:06:31;47.88;;;20.02;;
58496;SDS011;44284;51.310;16.904;2022-12-01T01:08:57;47.45;;;20.83;;
58496;SDS011;44284;51.310;16.904;2022-12-01T01:11:23;46.00;;;20.05;;
58496;SDS011;44284;51.310;16.904;2022-12-01T01:13:49;52.38;;;22.15;;
58496;SDS011;44284;51.310;16.904;2022-12-01T01:16:16;48.10;;;20.40;;
58496;SDS011;44284;51.310;16.904;2022-12-01T01:18:43;48.00;;;20.67;;
58496;SDS011;44284;51.310;16.904;2022-12-01T01:21:11;39.33;;;16.50;;
58496;SDS011;44284;51.310;16.904;2022-12-01T01:23:37;51.20;;;20.48;;
58496;SDS011;44284;51.310;16.904;2022-12-01T01:26:04;45.38;;;18.23;;
58496;SDS011;44284;51.310;16.904;2022-12-01T01:28:31;50.17;;;22.42;;
58496;SDS011;44284;51.310;16.904;2022-12-01T01:30:57;45.88;;;19.58;;
58496;SDS011;44284;51.310;16.904;2022-12-01T01:33:23;37.13;;;17.88;;
58496;SDS011;44284;51.310;16.904;2022-12-01T01:35:50;40.50;;;16.02;;
58496;SDS011;44284;51.310;16.904;2022-12-01T01:38:16;42.20;;;19.00;;
58496;SDS011;44284;51.310;16.904;2022-12-01T01:40:43;43.22;;;19.27;;
58496;SDS011;44284;51.310;16.904;2022-12-01T01:43:12;45.85;;;20.13;;
58496;SDS011;44284;51.310;16.904;2022-12-01T01:45:38;41.78;;;18.65;;
58496;SDS011;44284;51.310;16.904;2022-12-01T01:48:04;50.35;;;19.02;;
58496;SDS011;44284;51.310;16.904;2022-12-01T01:50:31;43.60;;;19.30;;
58496;SDS011;44284;51.310;16.904;2022-12-01T01:52:58;46.33;;;19.20;;
58496;SDS011;44284;51.310;16.904;2022-12-01T01:55:26;43.22;;;19.67;;
58496;SDS011;44284;51.310;16.904;2022-12-01T01:57:53;40.28;;;18.25;;
58496;SDS011;44284;51.310;16.904;2022-12-01T02:00:19;40.17;;;18.42;;
58496;SDS011;44284;51.310;16.904;2022-12-01T02:02:46;43.47;;;19.20;;
58496;SDS011;44284;51.310;16.904;2022-12-01T02:05:13;45.08;;;18.25;;
58496;SDS011;44284;51.310;16.904;2022-12-01T02:07:41;47.67;;;20.33;;
58496;SDS011;44284;51.310;16.904;2022-12-01T02:10:08;48.85;;;20.05;;
58496;SDS011;44284;51.310;16.904;2022-12-01T02:12:48;37.92;;;18.05;;
58496;SDS011;44284;51.310;16.904;2022-12-01T02:15:28;41.40;;;17.98;;
58496;SDS011;44284;51.310;16.904;2022-12-01T02:18:03;41.85;;;18.88;;
58496;SDS011;44284;51.310;16.904;2022-12-01T02:30:47;37.25;;;17.55;;
58496;SDS011;44284;51.310;16.904;2022-12-01T02:33:26;43.67;;;18.25;;
58496;SDS011;44284;51.310;16.904;2022-12-01T02:36:02;46.53;;;21.52;;
58496;SDS011;44284;51.310;16.904;2022-12-01T02:38:40;48.05;;;22.23;;
58496;SDS011;44284;51.310;16.904;2022-12-01T02:43:40;46.58;;;22.27;;
58496;SDS011;44284;51.310;16.904;2022-12-01T02:46:09;48.42;;;21.27;;
58496;SDS011;44284;51.310;16.904;2022-12-01T02:48:37;48.78;;;20.75;;
58496;SDS011;44284;51.310;16.904;2022-12-01T02:51:27;52.60;;;21.80;;
58496;SDS011;44284;51.310;16.904;2022-12-01T02:53:53;53.15;;;21.83;;
58496;SDS011;44284;51.310;16.904;2022-12-01T02:56:20;58.95;;;24.95;;
58496;SDS011;44284;51.310;16.904;2022-12-01T02:58:47;50.03;;;23.67;;
58496;SDS011;44284;51.310;16.904;2022-12-01T03:11:38;53.13;;;22.40;;
58496;SDS011;44284;51.310;16.904;2022-12-01T03:14:13;54.70;;;22.55;;
58496;SDS011;44284;51.310;16.904;2022-12-01T03:16:48;52.17;;;22.10;;
58496;SDS011;44284;51.310;16.904;2022-12-01T03:21:41;53.03;;;21.63;;
58496;SDS011;44284;51.310;16.904;2022-12-01T03:24:13;52.47;;;22.73;;
58496;SDS011;44284;51.310;16.904;2022-12-01T03:26:39;51.65;;;21.98;;
58496;SDS011;44284;51.310;16.904;2022-12-01T03:29:07;56.25;;;23.58;;
58496;SDS011;44284;51.310;16.904;2022-12-01T03:31:36;53.42;;;22.80;;
58496;SDS011;44284;51.310;16.904;2022-12-01T03:34:20;52.55;;;22.85;;
58496;SDS011;44284;51.310;16.904;2022-12-01T03:37:09;53.47;;;23.67;;
58496;SDS011;44284;51.310;16.904;2022-12-01T03:39:34;45.85;;;20.38;;
58496;SDS011;44284;51.310;16.904;2022-12-01T03:42:08;57.35;;;22.60;;
58496;SDS011;44284;51.310;16.904;2022-12-01T03:44:35;55.75;;;23.02;;
58496;SDS011;44284;51.310;16.904;2022-12-01T03:47:08;54.22;;;24.17;;
58496;SDS011;44284;51.310;16.904;2022-12-01T03:49:35;62.13;;;25.27;;
58496;SDS011;44284;51.310;16.904;2022-12-01T03:57:16;53.92;;;23.23;;
58496;SDS011;44284;51.310;16.904;2022-12-01T03:59:43;55.33;;;25.10;;
58496;SDS011;44284;51.310;16.904;2022-12-01T04:02:10;48.53;;;21.88;;
58496;SDS011;44284;51.310;16.904;2022-12-01T04:04:36;57.13;;;23.88;;
58496;SDS011;44284;51.310;16.904;2022-12-01T04:07:03;49.88;;;22.92;;
58496;SDS011;44284;51.310;16.904;2022-12-01T04:09:29;55.58;;;22.83;;
58496;SDS011;44284;51.310;16.904;2022-12-01T04:11:55;50.45;;;23.63;;
58496;SDS011;44284;51.310;16.904;2022-12-01T04:14:39;49.15;;;22.25;;
58496;SDS011;44284;51.310;16.904;2022-12-01T04:17:05;56.72;;;23.65;;
58496;SDS011;44284;51.310;16.904;2022-12-01T04:19:32;49.97;;;22.48;;
58496;SDS011;44284;51.310;16.904;2022-12-01T04:21:58;46.15;;;21.70;;
58496;SDS011;44284;51.310;16.904;2022-12-01T04:24:24;53.17;;;22.67;;
58496;SDS011;44284;51.310;16.904;2022-12-01T04:26:50;53.15;;;21.90;;
58496;SDS011;44284;51.310;16.904;2022-12-01T04:29:16;50.13;;;20.20;;
58496;SDS011;44284;51.310;16.904;2022-12-01T04:31:42;54.05;;;22.52;;
58496;SDS011;44284;51.310;16.904;2022-12-01T04:34:08;55.47;;;22.42;;
58496;SDS011;44284;51.310;16.904;2022-12-01T04:36:35;47.13;;;22.42;;
58496;SDS011;44284;51.310;16.904;2022-12-01T04:39:01;52.53;;;21.40;;
58496;SDS011;44284;51.310;16.904;2022-12-01T04:41:28;48.53;;;20.40;;
58496;SDS011;44284;51.310;16.904;2022-12-01T04:43:54;49.90;;;21.27;;
58496;SDS011;44284;51.310;16.904;2022-12-01T04:46:20;52.97;;;20.55;;
58496;SDS011;44284;51.310;16.904;2022-12-01T04:48:46;46.92;;;19.48;;
58496;SDS011;44284;51.310;16.904;2022-12-01T04:51:12;49.72;;;20.27;;
58496;SDS011;44284;51.310;16.904;2022-12-01T04:53:38;50.83;;;20.40;;
58496;SDS011;44284;51.310;16.904;2022-12-01T04:56:05;51.95;;;21.02;;
58496;SDS011;44284;51.310;16.904;2022-12-01T04:58:31;49.72;;;23.73;;
58496;SDS011;44284;51.310;16.904;2022-12-01T05:01:06;50.05;;;22.67;;
58496;SDS011;44284;51.310;16.904;2022-12-01T05:03:35;53.30;;;24.00;;
58496;SDS011;44284;51.310;16.904;2022-12-01T05:06:02;48.30;;;23.83;;
58496;SDS011;44284;51.310;16.904;2022-12-01T05:08:28;49.60;;;23.00;;
58496;SDS011;44284;51.310;16.904;2022-12-01T05:10:54;57.22;;;24.15;;
58496;SDS011;44284;51.310;16.904;2022-12-01T05:13:21;53.97;;;23.33;;
58496;SDS011;44284;51.310;16.904;2022-12-01T05:15:47;60.95;;;24.27;;
58496;SDS011;44284;51.310;16.904;2022-12-01T05:18:13;68.63;;;28.70;;
58496;SDS011;44284;51.310;16.904;2022-12-01T05:20:39;57.50;;;26.48;;
58496;SDS011;44284;51.310;16.904;2022-12-01T05:23:24;57.67;;;24.65;;
58496;SDS011;44284;51.310;16.904;2022-12-01T05:25:50;67.15;;;27.75;;
58496;SDS011;44284;51.310;16.904;2022-12-01T05:28:16;76.15;;;29.48;;
58496;SDS011;44284;51.310;16.904;2022-12-01T05:30:42;57.65;;;26.17;;
58496;SDS011;44284;51.310;16.904;2022-12-01T05:33:08;60.03;;;24.63;;
58496;SDS011;44284;51.310;16.904;2022-12-01T05:35:34;56.33;;;25.23;;
58496;SDS011;44284;51.310;16.904;2022-12-01T05:38:01;57.33;;;24.10;;
58496;SDS011;44284;51.310;16.904;2022-12-01T05:40:27;56.17;;;24.60;;
58496;SDS011;44284;51.310;16.904;2022-12-01T05:42:56;64.15;;;26.13;;
58496;SDS011;44284;51.310;16.904;2022-12-01T05:45:23;60.55;;;27.38;;
58496;SDS011;44284;51.310;16.904;2022-12-01T05:47:49;58.83;;;26.33;;
58496;SDS011;44284;51.310;16.904;2022-12-01T05:50:15;60.17;;;25.70;;
58496;SDS011;44284;51.310;16.904;2022-12-01T05:52:41;57.75;;;25.58;;
58496;SDS011;44284;51.310;16.904;2022-12-01T05:55:07;59.63;;;25.60;;
58496;SDS011;44284;51.310;16.904;2022-12-01T05:57:33;58.92;;;23.52;;
58496;SDS011;44284;51.310;16.904;2022-12-01T06:00:00;53.78;;;24.63;;
58496;SDS011;44284;51.310;16.904;2022-12-01T06:02:26;60.50;;;25.63;;
58496;SDS011;44284;51.310;16.904;2022-12-01T06:04:52;62.97;;;25.80;;
58496;SDS011;44284;51.310;16.904;2022-12-01T06:07:18;54.17;;;24.42;;
58496;SDS011;44284;51.310;16.904;2022-12-01T06:09:44;58.35;;;25.88;;
58496;SDS011;44284;51.310;16.904;2022-12-01T06:12:11;62.70;;;26.52;;
58496;SDS011;44284;51.310;16.904;2022-12-01T06:14:37;62.70;;;26.42;;
58496;SDS011;44284;51.310;16.904;2022-12-01T06:17:03;59.65;;;24.58;;
58496;SDS011;44284;51.310;16.904;2022-12-01T06:19:29;65.13;;;27.42;;
58496;SDS011;44284;51.310;16.904;2022-12-01T06:21:56;65.55;;;25.67;;
58496;SDS011;44284;51.310;16.904;2022-12-01T06:24:22;66.72;;;27.25;;
58496;SDS011;44284;51.310;16.904;2022-12-01T06:26:48;68.63;;;26.30;;
58496;SDS011;44284;51.310;16.904;2022-12-01T06:29:14;58.95;;;26.58;;
58496;SDS011;44284;51.310;16.904;2022-12-01T06:31:40;67.10;;;26.10;;
58496;SDS011;44284;51.310;16.904;2022-12-01T06:34:07;67.00;;;26.15;;
58496;SDS011;44284;51.310;16.904;2022-12-01T06:36:33;75.90;;;26.65;;
58496;SDS011;44284;51.310;16.904;2022-12-01T06:38:59;61.17;;;24.33;;
58496;SDS011;44284;51.310;16.904;2022-12-01T06:41:25;58.28;;;23.90;;
58496;SDS011;44284;51.310;16.904;2022-12-01T06:43:51;64.43;;;25.48;;
58496;SDS011;44284;51.310;16.904;2022-12-01T06:46:17;56.33;;;24.08;;
58496;SDS011;44284;51.310;16.904;2022-12-01T06:48:43;55.30;;;25.70;;
58496;SDS011;44284;51.310;16.904;2022-12-01T06:51:15;57.78;;;24.40;;
58496;SDS011;44284;51.310;16.904;2022-12-01T06:53:41;56.13;;;25.77;;
58496;SDS011;44284;51.310;16.904;2022-12-01T06:56:07;55.50;;;24.33;;
58496;SDS011;44284;51.310;16.904;2022-12-01T06:58:33;52.80;;;23.15;;
58496;SDS011;44284;51.310;16.904;2022-12-01T07:00:59;63.10;;;26.13;;
58496;SDS011;44284;51.310;16.904;2022-12-01T07:03:26;62.65;;;23.90;;
58496;SDS011;44284;51.310;16.904;2022-12-01T07:05:55;58.10;;;26.48;;
58496;SDS011;44284;51.310;16.904;2022-12-01T07:08:22;65.28;;;26.20;;
58496;SDS011;44284;51.310;16.904;2022-12-01T07:10:55;62.70;;;28.17;;
58496;SDS011;44284;51.310;16.904;2022-12-01T07:13:21;66.50;;;27.25;;
58496;SDS011;44284;51.310;16.904;2022-12-01T07:15:48;66.15;;;27.75;;
58496;SDS011;44284;51.310;16.904;2022-12-01T07:18:14;66.82;;;26.50;;
58496;SDS011;44284;51.310;16.904;2022-12-01T07:20:40;58.90;;;27.88;;
58496;SDS011;44284;51.310;16.904;2022-12-01T07:23:07;56.92;;;24.98;;
58496;SDS011;44284;51.310;16.904;2022-12-01T07:25:33;60.85;;;26.58;;
58496;SDS011;44284;51.310;16.904;2022-12-01T07:27:59;63.60;;;27.77;;
58496;SDS011;44284;51.310;16.904;2022-12-01T07:30:25;56.22;;;25.35;;
58496;SDS011;44284;51.310;16.904;2022-12-01T07:32:51;58.22;;;24.02;;
58496;SDS011;44284;51.310;16.904;2022-12-01T07:35:17;62.88;;;25.00;;
58496;SDS011;44284;51.310;16.904;2022-12-01T07:37:44;55.28;;;24.98;;
58496;SDS011;44284;51.310;16.904;2022-12-01T07:40:10;62.92;;;26.50;;
58496;SDS011;44284;51.310;16.904;2022-12-01T07:42:39;62.58;;;27.40;;
58496;SDS011;44284;51.310;16.904;2022-12-01T07:45:06;60.45;;;24.98;;
58496;SDS011;44284;51.310;16.904;2022-12-01T07:47:32;63.65;;;26.10;;
58496;SDS011;44284;51.310;16.904;2022-12-01T07:49:58;62.28;;;24.83;;
58496;SDS011;44284;51.310;16.904;2022-12-01T07:52:24;63.70;;;25.45;;
58496;SDS011;44284;51.310;16.904;2022-12-01T07:54:50;57.50;;;26.25;;
58496;SDS011;44284;51.310;16.904;2022-12-01T07:57:16;57.55;;;25.15;;
58496;SDS011;44284;51.310;16.904;2022-12-01T07:59:44;56.60;;;25.00;;
58496;SDS011;44284;51.310;16.904;2022-12-01T08:02:10;65.50;;;27.83;;
58496;SDS011;44284;51.310;16.904;2022-12-01T08:04:37;52.67;;;23.58;;
58496;SDS011;44284;51.310;16.904;2022-12-01T08:07:03;53.35;;;24.80;;
58496;SDS011;44284;51.310;16.904;2022-12-01T08:09:29;61.88;;;28.33;;
58496;SDS011;44284;51.310;16.904;2022-12-01T08:11:55;64.80;;;27.52;;
58496;SDS011;44284;51.310;16.904;2022-12-01T08:14:21;55.58;;;25.95;;
58496;SDS011;44284;51.310;16.904;2022-12-01T08:16:47;65.72;;;25.75;;
58496;SDS011;44284;51.310;16.904;2022-12-01T08:19:14;54.92;;;24.42;;
58496;SDS011;44284;51.310;16.904;2022-12-01T08:21:40;57.25;;;26.38;;
58496;SDS011;44284;51.310;16.904;2022-12-01T08:24:06;55.80;;;25.95;;
58496;SDS011;44284;51.310;16.904;2022-12-01T08:26:32;56.40;;;24.88;;
58496;SDS011;44284;51.310;16.904;2022-12-01T08:28:58;58.08;;;24.83;;
58496;SDS011;44284;51.310;16.904;2022-12-01T08:31:34;57.58;;;23.27;;
58496;SDS011;44284;51.310;16.904;2022-12-01T08:41:58;63.40;;;25.90;;
58496;SDS011;44284;51.310;16.904;2022-12-01T08:47:28;61.88;;;26.65;;
58496;SDS011;44284;51.310;16.904;2022-12-01T08:49:54;55.97;;;27.00;;
58496;SDS011;44284;51.310;16.904;2022-12-01T08:52:20;62.70;;;28.33;;
58496;SDS011;44284;51.310;16.904;2022-12-01T08:54:46;57.97;;;26.33;;
58496;SDS011;44284;51.310;16.904;2022-12-01T08:57:12;67.30;;;29.52;;
58496;SDS011;44284;51.310;16.904;2022-12-01T08:59:38;57.45;;;27.17;;
58496;SDS011;44284;51.310;16.904;2022-12-01T09:02:04;66.43;;;30.38;;
58496;SDS011;44284;51.310;16.904;2022-12-01T09:04:31;61.97;;;27.08;;
58496;SDS011;44284;51.310;16.904;2022-12-01T09:06:57;55.03;;;27.95;;
58496;SDS011;44284;51.310;16.904;2022-12-01T09:09:25;65.28;;;27.77;;
58496;SDS011;44284;51.310;16.904;2022-12-01T09:11:52;63.65;;;29.08;;
58496;SDS011;44284;51.310;16.904;2022-12-01T09:14:20;65.40;;;28.92;;
58496;SDS011;44284;51.310;16.904;2022-12-01T09:16:46;60.00;;;26.33;;
58496;SDS011;44284;51.310;16.904;2022-12-01T09:19:14;58.80;;;26.77;;
58496;SDS011;44284;51.310;16.904;2022-12-01T09:21:40;62.00;;;29.17;;
58496;SDS011;44284;51.310;16.904;2022-12-01T09:24:09;66.45;;;28.88;;
58496;SDS011;44284;51.310;16.904;2022-12-01T09:26:36;62.97;;;28.75;;
58496;SDS011;44284;51.310;16.904;2022-12-01T09:29:04;58.72;;;26.15;;
58496;SDS011;44284;51.310;16.904;2022-12-01T09:31:31;57.45;;;26.75;;
58496;SDS011;44284;51.310;16.904;2022-12-01T09:33:58;60.83;;;26.42;;
58496;SDS011;44284;51.310;16.904;2022-12-01T09:36:25;55.72;;;27.17;;
58496;SDS011;44284;51.310;16.904;2022-12-01T09:38:51;60.80;;;27.35;;
58496;SDS011;44284;51.310;16.904;2022-12-01T09:41:22;61.65;;;28.48;;
58496;SDS011;44284;51.310;16.904;2022-12-01T09:44:00;60.13;;;26.75;;
58496;SDS011;44284;51.310;16.904;2022-12-01T09:46:31;60.88;;;26.23;;
58496;SDS011;44284;51.310;16.904;2022-12-01T09:49:00;67.82;;;26.63;;
58496;SDS011;44284;51.310;16.904;2022-12-01T09:51:28;60.60;;;27.40;;
58496;SDS011;44284;51.310;16.904;2022-12-01T09:53:55;60.08;;;26.15;;
58496;SDS011;44284;51.310;16.904;2022-12-01T09:56:26;63.80;;;28.05;;
58496;SDS011;44284;51.310;16.904;2022-12-01T09:59:00;60.08;;;26.77;;
58496;SDS011;44284;51.310;16.904;2022-12-01T10:01:31;58.42;;;25.90;;
58496;SDS011;44284;51.310;16.904;2022-12-01T10:03:59;59.35;;;25.80;;
58496;SDS011;44284;51.310;16.904;2022-12-01T10:06:37;56.13;;;25.15;;
58496;SDS011;44284;51.310;16.904;2022-12-01T10:11:50;62.75;;;25.63;;
58496;SDS011;44284;51.310;16.904;2022-12-01T10:14:18;59.75;;;24.42;;
58496;SDS011;44284;51.310;16.904;2022-12-01T10:19:46;48.83;;;22.75;;
58496;SDS011;44284;51.310;16.904;2022-12-01T10:22:25;63.15;;;26.60;;
58496;SDS011;44284;51.310;16.904;2022-12-01T10:30:13;52.35;;;24.70;;
58496;SDS011;44284;51.310;16.904;2022-12-01T10:35:15;63.80;;;26.10;;
58496;SDS011;44284;51.310;16.904;2022-12-01T10:37:41;55.72;;;24.75;;
58496;SDS011;44284;51.310;16.904;2022-12-01T10:40:12;52.05;;;24.70;;
58496;SDS011;44284;51.310;16.904;2022-12-01T10:42:42;56.50;;;25.65;;
58496;SDS011;44284;51.310;16.904;2022-12-01T10:45:30;52.58;;;24.90;;
58496;SDS011;44284;51.310;16.904;2022-12-01T10:50:41;52.88;;;25.00;;
58496;SDS011;44284;51.310;16.904;2022-12-01T10:53:18;56.50;;;25.80;;
58496;SDS011;44284;51.310;16.904;2022-12-01T10:55:55;55.90;;;25.20;;
58496;SDS011;44284;51.310;16.904;2022-12-01T10:58:23;49.97;;;22.45;;
58496;SDS011;44284;51.310;16.904;2022-12-01T11:00:56;56.28;;;25.52;;
58496;SDS011;44284;51.310;16.904;2022-12-01T11:03:24;51.15;;;25.00;;
58496;SDS011;44284;51.310;16.904;2022-12-01T11:05:53;53.33;;;24.45;;
58496;SDS011;44284;51.310;16.904;2022-12-01T11:08:22;56.50;;;24.27;;
58496;SDS011;44284;51.310;16.904;2022-12-01T11:10:48;52.15;;;25.33;;
58496;SDS011;44284;51.310;16.904;2022-12-01T11:15:53;55.95;;;25.25;;
58496;SDS011;44284;51.310;16.904;2022-12-01T11:20:46;54.92;;;25.48;;
58496;SDS011;44284;51.310;16.904;2022-12-01T11:26:10;57.95;;;25.40;;
58496;SDS011;44284;51.310;16.904;2022-12-01T11:28:39;59.85;;;24.25;;
58496;SDS011;44284;51.310;16.904;2022-12-01T11:31:07;55.25;;;26.90;;
58496;SDS011;44284;51.310;16.904;2022-12-01T11:33:52;57.85;;;26.17;;
58496;SDS011;44284;51.310;16.904;2022-12-01T11:37:05;56.30;;;25.02;;
58496;SDS011;44284;51.310;16.904;2022-12-01T11:39:05;49.13;;;22.88;;
58496;SDS011;44284;51.310;16.904;2022-12-01T11:41:35;51.78;;;24.58;;
58496;SDS011;44284;51.310;16.904;2022-12-01T11:44:03;51.45;;;25.08;;
58496;SDS011;44284;51.310;16.904;2022-12-01T11:46:31;55.30;;;23.27;;
58496;SDS011;44284;51.310;16.904;2022-12-01T11:48:57;54.40;;;24.40;;
58496;SDS011;44284;51.310;16.904;2022-12-01T11:51:33;53.38;;;24.08;;
58496;SDS011;44284;51.310;16.904;2022-12-01T11:54:13;53.13;;;24.48;;
58496;SDS011;44284;51.310;16.904;2022-12-01T11:56:40;49.53;;;24.05;;
58496;SDS011;44284;51.310;16.904;2022-12-01T11:59:15;57.00;;;24.42;;
58496;SDS011;44284;51.310;16.904;2022-12-01T12:01:49;50.67;;;24.10;;
58496;SDS011;44284;51.310;16.904;2022-12-01T12:14:46;49.97;;;22.67;;
58496;SDS011;44284;51.310;16.904;2022-12-01T12:27:17;51.75;;;22.50;;
58496;SDS011;44284;51.310;16.904;2022-12-01T12:52:50;61.50;;;27.65;;
58496;SDS011;44284;51.310;16.904;2022-12-01T12:55:20;47.92;;;22.20;;
58496;SDS011;44284;51.310;16.904;2022-12-01T12:57:50;49.50;;;22.92;;
58496;SDS011;44284;51.310;16.904;2022-12-01T13:00:19;61.20;;;25.65;;
58496;SDS011;44284;51.310;16.904;2022-12-01T13:03:17;53.25;;;26.17;;
58496;SDS011;44284;51.310;16.904;2022-12-01T13:05:45;55.20;;;25.55;;
58496;SDS011;44284;51.310;16.904;2022-12-01T13:08:23;43.97;;;21.83;;
58496;SDS011;44284;51.310;16.904;2022-12-01T13:10:56;45.67;;;20.02;;
58496;SDS011;44284;51.310;16.904;2022-12-01T13:13:30;47.53;;;19.60;;
58496;SDS011;44284;51.310;16.904;2022-12-01T13:15:57;43.70;;;22.65;;
58496;SDS011;44284;51.310;16.904;2022-12-01T13:18:25;50.97;;;22.85;;
58496;SDS011;44284;51.310;16.904;2022-12-01T13:20:53;47.97;;;21.85;;
58496;SDS011;44284;51.310;16.904;2022-12-01T13:23:20;44.58;;;20.55;;
58496;SDS011;44284;51.310;16.904;2022-12-01T13:25:47;42.92;;;19.88;;
58496;SDS011;44284;51.310;16.904;2022-12-01T13:28:19;39.03;;;20.23;;
58496;SDS011;44284;51.310;16.904;2022-12-01T13:30:59;44.30;;;19.77;;
58496;SDS011;44284;51.310;16.904;2022-12-01T13:33:26;41.03;;;19.27;;
58496;SDS011;44284;51.310;16.904;2022-12-01T13:35:52;39.33;;;20.00;;
58496;SDS011;44284;51.310;16.904;2022-12-01T13:40:49;45.92;;;22.85;;
58496;SDS011;44284;51.310;16.904;2022-12-01T13:43:34;47.97;;;23.50;;
58496;SDS011;44284;51.310;16.904;2022-12-01T13:46:01;64.70;;;33.20;;
58496;SDS011;44284;51.310;16.904;2022-12-01T13:48:28;54.75;;;25.50;;
58496;SDS011;44284;51.310;16.904;2022-12-01T13:50:56;53.80;;;23.88;;
58496;SDS011;44284;51.310;16.904;2022-12-01T13:53:27;53.42;;;26.00;;
58496;SDS011;44284;51.310;16.904;2022-12-01T13:58:43;52.78;;;25.83;;
58496;SDS011;44284;51.310;16.904;2022-12-01T14:06:28;43.65;;;20.67;;
58496;SDS011;44284;51.310;16.904;2022-12-01T14:14:35;37.58;;;18.98;;
58496;SDS011;44284;51.310;16.904;2022-12-01T14:17:02;42.88;;;19.88;;
58496;SDS011;44284;51.310;16.904;2022-12-01T14:21:54;38.45;;;20.55;;
58496;SDS011;44284;51.310;16.904;2022-12-01T14:24:26;41.75;;;20.50;;
58496;SDS011;44284;51.310;16.904;2022-12-01T14:26:55;46.43;;;22.03;;
58496;SDS011;44284;51.310;16.904;2022-12-01T14:34:17;44.92;;;22.70;;
58496;SDS011;44284;51.310;16.904;2022-12-01T14:36:55;49.50;;;20.98;;
58496;SDS011;44284;51.310;16.904;2022-12-01T14:39:26;40.03;;;21.67;;
58496;SDS011;44284;51.310;16.904;2022-12-01T14:42:04;42.05;;;22.10;;
58496;SDS011;44284;51.310;16.904;2022-12-01T14:44:41;46.72;;;26.77;;
58496;SDS011;44284;51.310;16.904;2022-12-01T14:47:16;46.47;;;27.35;;
58496;SDS011;44284;51.310;16.904;2022-12-01T14:49:49;40.78;;;23.15;;
58496;SDS011;44284;51.310;16.904;2022-12-01T14:55:06;35.90;;;18.88;;
58496;SDS011;44284;51.310;16.904;2022-12-01T14:57:33;34.28;;;17.23;;
58496;SDS011;44284;51.310;16.904;2022-12-01T15:00:07;35.83;;;18.50;;
58496;SDS011;44284;51.310;16.904;2022-12-01T15:05:36;30.67;;;16.88;;
58496;SDS011;44284;51.310;16.904;2022-12-01T15:08:13;30.65;;;16.85;;
58496;SDS011;44284;51.310;16.904;2022-12-01T15:10:47;36.05;;;19.40;;
58496;SDS011;44284;51.310;16.904;2022-12-01T15:13:18;34.60;;;19.97;;
58496;SDS011;44284;51.310;16.904;2022-12-01T15:15:59;38.08;;;20.00;;
58496;SDS011;44284;51.310;16.904;2022-12-01T15:18:27;37.65;;;20.55;;
58496;SDS011;44284;51.310;16.904;2022-12-01T15:20:58;44.20;;;23.85;;
58496;SDS011;44284;51.310;16.904;2022-12-01T15:23:25;44.13;;;23.67;;
58496;SDS011;44284;51.310;16.904;2022-12-01T15:25:51;49.72;;;26.80;;
58496;SDS011;44284;51.310;16.904;2022-12-01T15:28:19;45.13;;;24.05;;
58496;SDS011;44284;51.310;16.904;2022-12-01T15:30:49;41.95;;;21.75;;
58496;SDS011;44284;51.310;16.904;2022-12-01T15:33:23;28.77;;;17.60;;
58496;SDS011;44284;51.310;16.904;2022-12-01T15:35:49;36.58;;;19.35;;
58496;SDS011;44284;51.310;16.904;2022-12-01T15:38:17;52.67;;;26.98;;
58496;SDS011;44284;51.310;16.904;2022-12-01T15:40:44;40.55;;;21.73;;
58496;SDS011;44284;51.310;16.904;2022-12-01T15:43:15;43.00;;;23.27;;
58496;SDS011;44284;51.310;16.904;2022-12-01T15:46:28;40.75;;;21.75;;
58496;SDS011;44284;51.310;16.904;2022-12-01T15:48:35;39.13;;;21.10;;
58496;SDS011;44284;51.310;16.904;2022-12-01T15:53:34;41.78;;;20.00;;
58496;SDS011;44284;51.310;16.904;2022-12-01T15:56:02;44.22;;;22.95;;
58496;SDS011;44284;51.310;16.904;2022-12-01T15:58:30;37.78;;;19.27;;
58496;SDS011;44284;51.310;16.904;2022-12-01T16:01:16;46.78;;;24.83;;
58496;SDS011;44284;51.310;16.904;2022-12-01T16:04:02;53.30;;;27.35;;
58496;SDS011;44284;51.310;16.904;2022-12-01T16:06:30;62.35;;;30.73;;
58496;SDS011;44284;51.310;16.904;2022-12-01T16:09:00;69.13;;;35.85;;
58496;SDS011;44284;51.310;16.904;2022-12-01T16:11:27;87.50;;;40.08;;
58496;SDS011;44284;51.310;16.904;2022-12-01T16:13:57;48.80;;;25.55;;
58496;SDS011;44284;51.310;16.904;2022-12-01T16:18:58;39.08;;;21.55;;
58496;SDS011;44284;51.310;16.904;2022-12-01T16:21:25;40.95;;;21.67;;
58496;SDS011;44284;51.310;16.904;2022-12-01T16:24:02;38.47;;;21.50;;
58496;SDS011;44284;51.310;16.904;2022-12-01T16:26:28;41.67;;;23.20;;
58496;SDS011;44284;51.310;16.904;2022-12-01T16:28:55;43.15;;;24.35;;
58496;SDS011;44284;51.310;16.904;2022-12-01T16:31:21;39.88;;;20.88;;
58496;SDS011;44284;51.310;16.904;2022-12-01T16:33:47;43.38;;;22.17;;
58496;SDS011;44284;51.310;16.904;2022-12-01T16:36:13;37.67;;;17.98;;
58496;SDS011;44284;51.310;16.904;2022-12-01T16:38:40;36.10;;;18.77;;
58496;SDS011;44284;51.310;16.904;2022-12-01T16:41:14;37.75;;;18.88;;